Time;durP1;ratioP1;P1;durP2;ratioP2;P2;SDS_P1;SDS_P2;PMS_P1;PMS_P2;Temp;Humidity;BMP_temperature;BMP_pressure;BME280_temperature;BME280_humidity;BME280_pressure;Samples;Min_cycle;Max_cycle;Signal;HPM_P1;HPM_P2
2022/05/04 00:02:47;;;;;;;8.50;7.70;;;;;;;16.20;54.67;97860.13;8488124;27;20237;-75
2022/05/04 00:06:50;;;;;;;9.60;8.00;;;;;;;16.11;54.70;97855.53;8483831;28;20225;-74
2022/05/04 00:10:54;;;;;;;9.20;7.60;;;;;;;16.19;54.00;97855.00;8483602;28;20579;-74
2022/05/04 00:14:57;;;;;;;8.20;7.23;;;;;;;16.26;53.94;97861.47;8483797;27;20548;-74
2022/05/04 00:19:00;;;;;;;8.70;7.90;;;;;;;16.30;53.73;97869.94;8483708;28;20399;-73
2022/05/04 00:23:03;;;;;;;9.67;7.87;;;;;;;16.13;54.53;97874.53;8455078;28;20238;-74
2022/05/04 00:27:08;;;;;;;8.73;7.83;;;;;;;16.12;54.30;97869.41;8449625;28;20237;-74
2022/05/04 00:31:10;;;;;;;11.07;7.60;;;;;;;16.06;54.24;97865.44;8449395;28;20234;-74
2022/05/04 00:35:13;;;;;;;15.20;7.50;;;;;;;16.07;54.13;97863.66;8449251;28;20249;-75
2022/05/04 00:39:16;;;;;;;10.93;7.70;;;;;;;16.09;54.13;97867.88;8449137;28;20226;-74
2022/05/04 00:43:22;;;;;;;8.80;7.90;;;;;;;16.01;54.47;97872.75;8448842;28;20236;-74
2022/05/04 00:47:25;;;;;;;8.30;7.60;;;;;;;15.91;54.28;97872.53;8482342;28;20225;-74
2022/05/04 00:51:28;;;;;;;8.50;7.47;;;;;;;15.98;54.09;97872.97;8481959;28;20544;-74
2022/05/04 00:55:32;;;;;;;9.83;8.10;;;;;;;15.94;54.19;97884.59;8482085;27;20230;-74
2022/05/04 00:59:38;;;;;;;8.67;7.80;;;;;;;15.79;54.85;97874.22;8482188;28;20233;-74
2022/05/04 01:03:41;;;;;;;9.20;8.30;;;;;;;15.80;54.96;97875.91;8494104;27;20544;-75
2022/05/04 01:07:46;;;;;;;13.43;7.53;;;;;;;15.79;55.07;97878.59;8499079;27;20418;-75
2022/05/04 01:11:49;;;;;;;8.70;7.60;;;;;;;15.82;55.02;97881.00;8498764;27;20235;-74
2022/05/04 01:15:53;;;;;;;9.00;8.10;;;;;;;15.74;55.32;97873.69;8498808;27;20229;-75
2022/05/04 01:19:56;;;;;;;10.00;8.10;;;;;;;15.67;55.75;97861.09;8498754;27;20233;-74
2022/05/04 01:24:01;;;;;;;9.20;8.30;;;;;;;15.62;56.23;97856.22;8498506;27;20233;-75
2022/05/04 01:28:05;;;;;;;9.57;8.00;;;;;;;15.70;56.36;97866.13;8498616;27;20425;-74
2022/05/04 01:32:09;;;;;;;10.67;8.73;;;;;;;15.75;55.98;97866.72;8498433;27;20524;-75
2022/05/04 01:36:12;;;;;;;8.60;7.80;;;;;;;15.61;55.88;97868.44;8498340;27;20236;-74
2022/05/04 01:40:16;;;;;;;12.43;8.50;;;;;;;15.45;56.29;97870.38;8498320;27;20531;-74
2022/05/04 01:44:19;;;;;;;9.47;8.53;;;;;;;15.62;55.82;97870.09;8498139;27;20229;-74
2022/05/04 01:48:22;;;;;;;10.23;8.37;;;;;;;15.36;56.50;97873.56;8497698;27;20408;-73
2022/05/04 01:52:25;;;;;;;11.23;8.93;;;;;;;15.33;56.51;97874.63;8498060;27;20232;-73
2022/05/04 01:56:29;;;;;;;10.77;9.37;;;;;;;15.35;56.74;97879.75;8497699;27;20233;-74
2022/05/04 02:00:33;;;;;;;9.57;8.60;;;;;;;15.41;56.38;97869.72;8497865;27;20232;-73
2022/05/04 02:04:36;;;;;;;9.83;8.77;;;;;;;15.45;56.20;97878.19;8499684;27;20558;-73
2022/05/04 02:08:41;;;;;;;11.57;9.00;;;;;;;15.51;55.85;97869.94;8504552;27;20233;-74
2022/05/04 02:12:45;;;;;;;10.43;9.40;;;;;;;15.54;56.10;97863.72;8504606;27;20240;-74
2022/05/04 02:16:48;;;;;;;9.93;8.97;;;;;;;15.57;55.88;97860.88;8504884;27;20228;-75
2022/05/04 02:20:52;;;;;;;10.63;9.63;;;;;;;15.42;56.01;97871.41;8504281;27;20229;-74
2022/05/04 02:24:54;;;;;;;9.87;8.87;;;;;;;15.48;55.67;97871.94;8503988;27;20228;-74
2022/05/04 02:28:59;;;;;;;9.93;9.07;;;;;;;15.57;55.35;97856.53;8504323;27;20421;-74
2022/05/04 02:33:02;;;;;;;9.70;8.80;;;;;;;15.49;55.60;97863.19;8504065;27;20331;-74
2022/05/04 02:41:26;;;;;;;10.70;9.60;;;;;;;15.43;55.86;97874.84;8503595;27;20259;-74
2022/05/04 02:45:31;;;;;;;10.70;9.30;;;;;;;15.32;55.68;97865.09;8503566;27;20233;-74
2022/05/04 02:49:34;;;;;;;10.90;9.17;;;;;;;15.28;55.76;97868.84;8503712;27;20240;-74
2022/05/04 02:53:38;;;;;;;10.83;9.73;;;;;;;15.31;55.27;97866.06;8503275;27;20241;-74
2022/05/04 02:57:41;;;;;;;13.43;9.10;;;;;;;15.40;55.05;97862.84;8503156;27;20567;-75
2022/05/04 03:06:09;;;;;;;10.23;9.13;;;;;;;15.25;55.24;97863.84;8503001;27;20229;-75
2022/05/04 03:10:13;;;;;;;10.70;9.10;;;;;;;15.35;54.84;97864.09;8502605;27;20399;-75
2022/05/04 03:14:17;;;;;;;12.33;9.20;;;;;;;15.25;54.78;97864.69;8502719;27;20229;-75
2022/05/04 03:18:22;;;;;;;9.47;8.57;;;;;;;15.21;54.54;97854.53;8502441;27;20229;-75
2022/05/04 03:22:25;;;;;;;9.70;8.67;;;;;;;15.13;54.75;97860.25;8502113;27;20226;-74
2022/05/04 03:26:28;;;;;;;9.90;8.93;;;;;;;14.99;55.12;97855.94;8502212;27;20233;-75
2022/05/04 03:30:31;;;;;;;12.80;9.10;;;;;;;14.94;55.33;97851.94;8502233;27;20241;-75
2022/05/04 03:34:36;;;;;;;10.57;9.27;;;;;;;14.96;54.93;97850.91;8502017;27;20233;-74
2022/05/04 03:38:39;;;;;;;11.73;8.93;;;;;;;14.93;55.38;97853.72;8502042;27;20423;-74
2022/05/04 03:42:42;;;;;;;9.70;8.80;;;;;;;14.95;55.31;97849.25;8501750;27;20240;-75
2022/05/04 03:46:46;;;;;;;10.97;9.27;;;;;;;14.83;55.15;97850.88;8501792;27;20225;-75
2022/05/04 03:50:50;;;;;;;11.03;8.93;;;;;;;15.00;54.65;97848.94;8501549;27;20252;-75
2022/05/04 03:54:54;;;;;;;9.80;8.90;;;;;;;14.92;55.04;97848.59;8501425;27;20433;-75
2022/05/04 03:58:56;;;;;;;11.00;9.03;;;;;;;14.87;55.19;97846.28;8501153;27;20232;-75
2022/05/04 04:02:59;;;;;;;12.03;9.30;;;;;;;14.86;55.56;97852.44;8501114;27;20429;-75
2022/05/04 04:07:05;;;;;;;10.07;9.00;;;;;;;14.86;55.62;97849.81;8501286;27;20297;-75
2022/05/04 04:11:07;;;;;;;10.30;9.40;;;;;;;14.77;55.68;97848.63;8500861;27;20228;-75
2022/05/04 04:15:11;;;;;;;8.87;8.10;;;;;;;14.88;55.38;97855.78;8500858;27;20229;-75
2022/05/04 04:19:13;;;;;;;10.90;9.70;;;;;;;14.83;55.43;97856.06;8500835;27;20225;-75
2022/05/04 04:23:18;;;;;;;12.13;9.57;;;;;;;14.79;55.33;97862.41;8500836;27;20528;-75
2022/05/04 04:27:21;;;;;;;11.37;8.93;;;;;;;14.85;55.52;97869.03;8499655;27;20240;-75
2022/05/04 04:31:23;;;;;;;15.97;9.87;;;;;;;14.84;55.25;97867.34;8499860;27;20240;-74
2022/05/04 04:35:26;;;;;;;11.63;9.03;;;;;;;14.82;55.30;97877.03;8500245;27;20270;-74
2022/05/04 04:39:31;;;;;;;11.17;9.47;;;;;;;14.88;55.25;97883.63;8500086;27;20428;-72
2022/05/04 04:43:34;;;;;;;11.47;9.40;;;;;;;14.86;55.27;97887.16;8499422;27;20225;-74
2022/05/04 04:47:37;;;;;;;10.70;9.40;;;;;;;14.95;55.33;97895.34;8499987;27;20233;-78
2022/05/04 04:51:40;;;;;;;12.23;10.10;;;;;;;15.01;55.52;97897.56;8496563;27;20229;-78
2022/05/04 04:55:45;;;;;;;11.20;9.90;;;;;;;15.09;55.32;97892.69;8490983;27;20225;-75
2022/05/04 04:59:49;;;;;;;11.73;9.70;;;;;;;15.20;55.13;97887.63;8490980;27;20240;-74
2022/05/04 05:03:53;;;;;;;11.10;10.00;;;;;;;15.20;55.48;97894.63;8495130;27;20527;-75
2022/05/04 05:07:56;;;;;;;14.37;10.50;;;;;;;15.20;55.32;97895.44;8499069;27;20302;-75
2022/05/04 05:12:00;;;;;;;11.77;10.33;;;;;;;15.16;55.34;97896.56;8498953;27;20404;-75
2022/05/04 05:16:10;;;;;;;15.03;12.67;;;;;;;15.11;55.76;97884.75;8499140;27;20549;-75
2022/05/04 05:20:13;;;;;;;16.00;10.90;;;;;;;15.18;55.65;97892.09;8498947;27;20303;-75
2022/05/04 05:24:16;;;;;;;11.70;10.13;;;;;;;15.20;55.78;97894.63;8498765;27;20228;-74
2022/05/04 05:28:22;;;;;;;12.73;10.40;;;;;;;15.27;55.87;97885.47;8498623;27;20224;-75
2022/05/04 05:32:25;;;;;;;16.00;10.77;;;;;;;15.23;55.92;97881.34;8498021;27;20237;-74
2022/05/04 05:36:28;;;;;;;11.13;9.87;;;;;;;15.16;56.51;97882.72;8498175;27;20230;-74
2022/05/04 05:40:31;;;;;;;14.43;10.13;;;;;;;15.26;56.06;97891.59;8496491;27;20240;-74
2022/05/04 05:44:36;;;;;;;13.47;10.30;;;;;;;15.22;55.92;97890.97;8489532;27;20284;-74
2022/05/04 05:48:40;;;;;;;11.57;10.17;;;;;;;15.31;55.73;97899.16;8489696;27;20237;-74
2022/05/04 05:52:43;;;;;;;11.37;10.27;;;;;;;15.36;55.71;97902.28;8489246;27;20241;-75
2022/05/04 05:56:46;;;;;;;12.07;10.87;;;;;;;15.37;55.65;97893.53;8489623;27;20233;-75
2022/05/04 06:00:50;;;;;;;13.63;10.13;;;;;;;15.50;55.51;97909.19;8489443;27;20229;-74
2022/05/04 06:04:54;;;;;;;14.50;10.27;;;;;;;15.83;54.94;97904.41;8480713;28;20229;-74
2022/05/04 06:08:57;;;;;;;11.63;10.50;;;;;;;16.27;54.25;97902.34;8480839;28;20555;-74
2022/05/04 06:13:00;;;;;;;11.97;10.70;;;;;;;16.44;53.83;97903.78;8480344;28;20240;-75
2022/05/04 06:17:05;;;;;;;13.50;10.80;;;;;;;16.80;52.94;97913.44;8480863;28;20570;-74
2022/05/04 06:21:08;;;;;;;11.80;10.60;;;;;;;17.00;52.84;97912.06;8480746;28;20426;-75
2022/05/04 06:25:11;;;;;;;14.73;11.10;;;;;;;17.20;52.10;97908.00;8480335;28;20563;-75
2022/05/04 06:29:14;;;;;;;13.37;11.37;;;;;;;16.71;52.20;97901.00;8479805;28;20225;-76
2022/05/04 06:37:40;;;;;;;12.87;11.30;;;;;;;16.65;52.49;97903.25;8509665;27;20223;-74
2022/05/04 06:41:43;;;;;;;13.30;10.70;;;;;;;17.31;51.88;97909.03;8513637;27;20229;-75
2022/05/04 06:45:46;;;;;;;13.27;12.00;;;;;;;16.58;52.03;97908.91;8502740;27;20231;-75
2022/05/04 06:49:50;;;;;;;13.27;11.77;;;;;;;17.19;51.23;97921.19;8512147;27;20224;-74
2022/05/04 06:53:54;;;;;;;11.50;10.30;;;;;;;17.74;50.29;97916.34;8506165;27;20238;-74
2022/05/04 06:58:17;;;;;;;14.97;10.70;;;;;;;17.89;50.86;97915.22;8514549;27;20216;-74
2022/05/04 07:02:20;;;;;;;13.93;10.70;;;;;;;18.10;50.12;97917.16;8519801;27;20224;-74
2022/05/04 07:06:25;;;;;;;12.83;11.17;;;;;;;18.03;49.73;97914.19;8510934;27;20225;-74
2022/05/04 07:10:28;;;;;;;13.50;10.73;;;;;;;17.85;49.07;97924.25;8519957;27;20243;-75
2022/05/04 07:14:31;;;;;;;13.17;10.33;;;;;;;18.05;49.40;97911.44;8519766;27;20236;-74
2022/05/04 07:18:34;;;;;;;18.03;11.00;;;;;;;18.31;49.16;97914.69;8519616;27;20229;-74
2022/05/04 07:22:38;;;;;;;10.93;9.70;;;;;;;18.53;48.93;97911.25;8519679;27;20298;-74
2022/05/04 07:26:41;;;;;;;14.73;11.27;;;;;;;18.76;48.07;97912.91;8519284;27;20244;-74
2022/05/04 07:30:44;;;;;;;17.43;10.67;;;;;;;18.66;48.16;97911.16;8519218;27;20262;-74
2022/05/04 07:34:48;;;;;;;15.03;10.53;;;;;;;19.16;48.13;97910.75;8519114;27;20224;-74
2022/05/04 07:38:52;;;;;;;12.53;9.83;;;;;;;19.29;48.12;97900.91;8519254;27;20418;-74
2022/05/04 07:42:54;;;;;;;13.00;10.10;;;;;;;19.75;46.13;97912.94;8518829;27;20237;-75
2022/05/04 07:46:57;;;;;;;11.40;9.20;;;;;;;19.94;46.09;97900.91;8518721;27;20225;-75
2022/05/04 07:51:00;;;;;;;12.87;9.73;;;;;;;19.78;45.77;97907.44;8518668;27;20225;-74
2022/05/04 07:55:06;;;;;;;12.30;9.43;;;;;;;20.00;45.44;97905.63;8518971;27;20579;-74
2022/05/04 07:59:09;;;;;;;11.93;9.43;;;;;;;20.07;45.38;97912.88;8518622;27;20232;-74
2022/05/04 08:07:33;;;;;;;12.23;9.90;;;;;;;20.08;44.44;97914.53;8501365;27;20219;-75
2022/05/04 08:11:37;;;;;;;12.80;11.37;;;;;;;19.14;46.96;97926.59;8500788;27;20406;-72
2022/05/04 08:15:40;;;;;;;11.63;10.13;;;;;;;19.96;46.92;97928.69;8501181;27;20419;-74
2022/05/04 08:19:44;;;;;;;11.33;9.47;;;;;;;20.57;43.50;97927.94;8500679;27;20225;-75
2022/05/04 08:23:47;;;;;;;10.87;9.87;;;;;;;20.47;43.60;97927.06;8500624;27;20230;-75
2022/05/04 08:27:58;;;;;;;10.57;9.47;;;;;;;20.92;43.69;97924.06;8500691;27;20524;-75
2022/05/04 08:32:01;;;;;;;11.23;9.97;;;;;;;21.38;42.29;97925.28;8500336;27;20234;-75
2022/05/04 08:36:05;;;;;;;11.07;9.97;;;;;;;21.34;40.99;97926.50;8500516;27;20228;-75
2022/05/04 08:40:09;;;;;;;10.57;8.33;;;;;;;22.25;39.83;97915.69;8500265;27;20228;-75
2022/05/04 08:44:14;;;;;;;11.87;9.27;;;;;;;22.21;39.05;97920.38;8500223;27;20243;-75
2022/05/04 08:48:17;;;;;;;12.47;9.30;;;;;;;21.89;40.66;97918.06;8499934;27;20236;-75
2022/05/04 08:52:21;;;;;;;9.77;7.80;;;;;;;22.28;39.53;97912.78;8501679;27;20237;-75
2022/05/04 08:56:24;;;;;;;9.83;8.30;;;;;;;22.73;39.24;97922.63;8493309;27;20231;-75
2022/05/04 09:00:29;;;;;;;8.10;7.30;;;;;;;22.57;40.09;97914.47;8497379;27;20516;-73
2022/05/04 09:04:32;;;;;;;10.57;8.37;;;;;;;22.95;39.20;97904.72;8513497;27;20231;-73
2022/05/04 09:08:56;;;;;;;8.73;7.40;;;;;;;23.06;36.45;97904.53;8516397;27;20232;-73
2022/05/04 09:13:00;;;;;;;7.90;6.30;;;;;;;22.99;37.43;97898.97;8515363;27;20233;-75
2022/05/04 09:17:09;;;;;;;7.10;6.40;;;;;;;23.52;35.46;97897.38;8516300;27;20427;-75
2022/05/04 09:21:21;;;;;;;7.77;5.60;;;;;;;23.54;34.63;97891.97;8516068;27;20234;-76
2022/05/04 09:25:25;;;;;;;12.00;6.43;;;;;;;23.77;35.16;97897.59;8515623;27;20569;-74
2022/05/04 09:29:35;;;;;;;8.27;6.90;;;;;;;23.33;36.25;97908.13;8515822;27;20243;-75
2022/05/04 09:33:39;;;;;;;8.27;6.00;;;;;;;23.93;37.85;97896.91;8515543;27;20237;-75
2022/05/04 09:46:42;;;;;;;10.53;7.00;;;;;;;24.04;34.68;97888.72;8490046;27;20301;-74
2022/05/04 09:50:46;;;;;;;10.07;6.53;;;;;;;23.80;34.07;97879.66;8515087;27;20278;-74
2022/05/04 09:54:52;;;;;;;9.07;5.63;;;;;;;24.61;34.38;97875.00;8515012;27;20241;-75
2022/05/04 09:58:55;;;;;;;6.97;5.90;;;;;;;24.88;33.40;97873.13;8514885;27;20260;-75
2022/05/04 10:02:58;;;;;;;8.67;6.07;;;;;;;24.72;33.79;97872.06;8501340;27;20237;-76
2022/05/04 10:07:04;;;;;;;8.13;6.03;;;;;;;24.62;32.44;97867.88;8496988;27;20233;-74
2022/05/04 10:11:07;;;;;;;8.33;5.57;;;;;;;24.89;32.80;97858.91;8497526;27;20603;-74
2022/05/04 10:15:11;;;;;;;8.13;6.53;;;;;;;24.98;32.08;97855.28;8497546;27;20245;-76
2022/05/04 10:19:21;;;;;;;6.70;5.63;;;;;;;24.48;32.33;97845.47;8497419;27;20236;-74
2022/05/04 10:23:27;;;;;;;6.20;4.67;;;;;;;25.44;32.72;97842.44;8488403;27;20234;-73
2022/05/04 10:27:30;;;;;;;12.13;5.80;;;;;;;25.27;30.71;97832.84;8484548;28;20239;-73
2022/05/04 10:31:35;;;;;;;8.93;5.83;;;;;;;24.82;31.62;97832.22;8486951;27;20291;-76
2022/05/04 10:35:42;;;;;;;7.87;4.27;;;;;;;25.63;30.42;97814.78;8486907;27;20241;-75
2022/05/04 10:40:06;;;;;;;6.27;4.70;;;;;;;25.43;31.67;97819.56;8486805;27;20323;-73
2022/05/04 10:44:10;;;;;;;8.03;4.13;;;;;;;26.04;31.01;97808.59;8486967;27;20239;-76
2022/05/04 10:48:24;;;;;;;5.30;4.03;;;;;;;26.07;29.72;97806.44;8486617;27;20504;-76
2022/05/04 10:52:32;;;;;;;4.97;4.00;;;;;;;26.06;29.50;97802.09;8493629;27;20241;-76
2022/05/04 10:56:38;;;;;;;5.03;4.27;;;;;;;26.00;29.56;97796.66;8486682;27;20252;-75
2022/05/04 11:01:02;;;;;;;4.83;4.17;;;;;;;26.34;29.84;97789.22;8486528;28;20239;-77
2022/05/04 11:05:13;;;;;;;4.93;4.33;;;;;;;26.94;29.48;97780.81;8460720;28;20463;-75
2022/05/04 11:09:17;;;;;;;9.37;4.67;;;;;;;27.09;30.25;97765.75;8452296;28;20229;-75
2022/05/04 11:13:22;;;;;;;6.20;4.60;;;;;;;26.60;28.38;97761.59;8452166;28;20242;-75
2022/05/04 11:17:25;;;;;;;6.07;4.10;;;;;;;26.62;28.28;97774.72;8485209;28;20320;-75
2022/05/04 11:21:29;;;;;;;5.60;4.00;;;;;;;27.16;28.44;97763.22;8485558;27;20331;-74
2022/05/04 11:25:32;;;;;;;7.10;4.03;;;;;;;27.08;28.17;97759.63;8485171;27;20551;-74
2022/05/04 11:29:36;;;;;;;5.50;4.33;;;;;;;27.13;27.36;97763.56;8485356;28;20560;-74
2022/05/04 11:33:41;;;;;;;7.97;4.83;;;;;;;25.29;29.37;97757.47;8485174;28;20236;-74
2022/05/04 11:37:44;;;;;;;6.50;3.90;;;;;;;24.71;30.39;97759.22;8479454;28;20413;-74
2022/05/04 11:41:48;;;;;;;6.13;3.20;;;;;;;24.53;30.25;97766.47;8480751;28;20234;-75
2022/05/04 11:45:54;;;;;;;10.10;3.80;;;;;;;24.14;30.26;97759.00;8485264;28;20236;-74
2022/05/04 11:49:58;;;;;;;8.07;4.17;;;;;;;23.78;31.14;97764.44;8484496;28;20226;-74
2022/05/04 11:54:00;;;;;;;7.78;3.70;;;;;;;24.09;29.74;97782.47;8482534;27;20416;-74
2022/05/04 11:58:08;;;;;;;9.73;4.23;;;;;;;23.14;34.71;97798.97;8484028;28;20240;-73
2022/05/04 12:02:12;;;;;;;11.70;4.83;;;;;;;22.58;37.34;97808.78;8495285;27;20234;-73
2022/05/04 12:06:16;;;;;;;13.67;5.60;;;;;;;22.09;39.24;97809.97;8484125;28;20439;-74
2022/05/04 12:10:19;;;;;;;10.77;5.50;;;;;;;21.86;40.00;97811.13;8483926;28;20547;-74
2022/05/04 12:14:22;;;;;;;6.67;5.33;;;;;;;21.58;40.57;97806.75;8483610;27;20233;-73
2022/05/04 12:18:29;;;;;;;10.00;5.37;;;;;;;21.33;41.48;97798.44;8483088;28;20235;-74
2022/05/04 12:22:32;;;;;;;8.17;4.70;;;;;;;21.28;42.54;97795.38;8483328;28;20259;-74
2022/05/04 12:26:36;;;;;;;5.50;4.20;;;;;;;21.28;43.54;97819.06;8483193;28;20239;-74
2022/05/04 12:35:06;;;;;;;11.70;4.97;;;;;;;21.11;44.57;97844.28;8483226;28;20605;-74
2022/05/04 12:39:09;;;;;;;9.13;4.80;;;;;;;21.24;46.29;97854.56;8483033;28;20592;-74
2022/05/04 12:43:13;;;;;;;6.63;4.83;;;;;;;21.23;46.05;97859.00;8482980;27;20235;-74
2022/05/04 12:47:15;;;;;;;13.47;4.40;;;;;;;21.12;45.92;97850.41;8482618;28;20242;-74
2022/05/04 12:51:20;;;;;;;6.87;4.30;;;;;;;21.29;45.00;97850.53;8482565;27;20239;-74
2022/05/04 12:56:45;;;;;;;8.90;4.10;;;;;;;21.30;45.54;97843.47;8448296;28;20230;-74
2022/05/04 12:59:48;;;;;;;7.27;3.90;;;;;;;21.22;45.72;97849.44;8448263;28;20229;-74
2022/05/04 13:03:52;;;;;;;8.70;4.30;;;;;;;21.17;46.57;97842.91;8473201;27;20409;-74
2022/05/04 13:07:57;;;;;;;9.60;5.33;;;;;;;21.22;47.99;97831.00;8482225;27;20235;-74
2022/05/04 13:12:00;;;;;;;11.17;7.07;;;;;;;20.86;50.35;97825.41;8481646;28;20239;-74
2022/05/04 13:16:03;;;;;;;12.20;5.50;;;;;;;21.22;49.56;97841.53;8481885;27;20230;-74
2022/05/04 13:20:09;;;;;;;8.13;5.60;;;;;;;20.97;49.94;97837.63;8481958;27;20229;-74
2022/05/04 13:24:15;;;;;;;7.93;5.03;;;;;;;20.95;47.69;97838.75;8481833;28;20284;-76
2022/05/04 13:28:18;;;;;;;10.33;5.00;;;;;;;20.89;47.87;97834.88;8486705;27;20230;-72
2022/05/04 13:32:21;;;;;;;12.63;4.70;;;;;;;21.05;48.72;97837.78;8481394;28;20231;-73
2022/05/04 13:36:25;;;;;;;14.00;4.97;;;;;;;21.09;48.08;97846.22;8514922;27;20289;-73
2022/05/04 13:40:29;;;;;;;8.60;4.80;;;;;;;21.01;49.32;97843.47;8515390;27;20235;-72
2022/05/04 13:44:32;;;;;;;9.03;4.60;;;;;;;21.10;48.79;97845.28;8515090;27;20233;-73
2022/05/04 13:48:37;;;;;;;8.50;5.50;;;;;;;20.27;50.39;97845.44;8515326;27;20469;-73
2022/05/04 13:57:01;;;;;;;9.87;6.50;;;;;;;19.98;53.50;97870.75;8515089;27;20234;-73
2022/05/04 14:01:05;;;;;;;7.67;6.63;;;;;;;19.76;55.06;97866.47;8507661;27;20240;-73
2022/05/04 14:05:08;;;;;;;8.40;6.90;;;;;;;19.33;54.42;97861.16;8510035;27;20351;-73
2022/05/04 14:09:11;;;;;;;9.20;7.43;;;;;;;19.50;54.96;97864.19;8480735;28;20232;-73
2022/05/04 14:13:24;;;;;;;7.67;6.27;;;;;;;19.11;54.62;97867.34;8480242;28;20231;-73
2022/05/04 14:17:27;;;;;;;7.67;6.53;;;;;;;19.04;53.84;97855.66;8480208;28;20310;-73
2022/05/04 14:21:30;;;;;;;8.93;6.13;;;;;;;19.13;53.09;97851.44;8480451;28;20245;-73
2022/05/04 14:25:34;;;;;;;6.33;5.53;;;;;;;19.56;54.16;97847.09;8480466;28;20547;-73
2022/05/04 14:29:38;;;;;;;8.00;5.50;;;;;;;19.81;52.78;97848.53;8480438;28;20229;-73
2022/05/04 14:33:41;;;;;;;6.83;5.70;;;;;;;19.84;53.66;97851.72;8480497;28;27569;-73
2022/05/04 14:37:45;;;;;;;7.00;5.17;;;;;;;20.01;52.24;97850.31;8480185;28;20308;-73
2022/05/04 14:41:48;;;;;;;7.13;5.50;;;;;;;19.96;51.54;97841.16;8480098;28;20230;-73
2022/05/04 14:45:52;;;;;;;6.17;5.53;;;;;;;20.10;51.73;97843.41;8480216;28;20248;-73
2022/05/04 14:49:56;;;;;;;6.83;4.70;;;;;;;20.21;51.14;97838.09;8480139;28;20613;-73
2022/05/04 14:53:59;;;;;;;7.80;5.10;;;;;;;20.20;51.59;97833.81;8479937;28;20237;-73
2022/05/04 14:58:02;;;;;;;4.87;4.37;;;;;;;20.42;51.29;97839.81;8479845;28;20237;-73
2022/05/04 15:02:07;;;;;;;5.90;4.50;;;;;;;20.59;51.15;97841.00;8489457;27;20230;-74
2022/05/04 15:06:10;;;;;;;8.30;5.90;;;;;;;20.17;54.71;97835.84;8514071;27;20234;-73
2022/05/04 15:10:14;;;;;;;19.23;6.20;;;;;;;20.05;55.87;97838.56;8513712;27;20250;-73
2022/05/04 15:14:18;;;;;;;6.07;5.47;;;;;;;20.02;56.03;97833.56;8519554;27;20239;-73
2022/05/04 15:18:23;;;;;;;6.70;5.50;;;;;;;20.08;54.78;97838.28;8519750;27;20292;-73
2022/05/04 15:22:31;;;;;;;6.40;5.60;;;;;;;20.16;54.02;97829.75;8485253;28;20225;-73
2022/05/04 15:26:36;;;;;;;5.97;5.37;;;;;;;20.35;53.64;97828.16;8485264;28;20267;-74
2022/05/04 15:30:39;;;;;;;6.40;5.60;;;;;;;20.47;54.30;97843.72;8485432;27;20235;-73
2022/05/04 15:34:43;;;;;;;5.73;5.13;;;;;;;20.70;52.63;97838.28;8485158;28;20256;-73
2022/05/04 15:38:46;;;;;;;6.67;5.10;;;;;;;20.52;52.85;97835.41;8485394;27;20229;-73
2022/05/04 15:42:49;;;;;;;7.97;4.93;;;;;;;20.62;52.45;97835.47;8484961;27;20233;-73
2022/05/04 15:46:59;;;;;;;7.10;5.10;;;;;;;20.69;52.50;97832.19;8484949;28;20292;-74
2022/05/04 15:51:04;;;;;;;6.30;4.87;;;;;;;20.69;50.88;97834.84;8484632;28;20235;-74
2022/05/04 15:55:09;;;;;;;6.87;4.60;;;;;;;20.87;50.96;97837.63;8484731;28;20310;-75
2022/05/04 15:59:12;;;;;;;7.03;4.53;;;;;;;21.04;50.35;97833.50;8483881;27;20233;-75
2022/05/04 16:07:37;;;;;;;4.37;3.97;;;;;;;20.91;48.29;97832.09;8500561;27;20243;-75
2022/05/04 16:11:44;;;;;;;4.20;3.63;;;;;;;21.13;46.97;97836.25;8500583;27;20242;-74
2022/05/04 16:15:48;;;;;;;4.87;3.77;;;;;;;20.99;45.93;97838.31;8500819;27;20566;-75
2022/05/04 16:24:09;;;;;;;5.60;3.87;;;;;;;20.89;45.04;97843.59;8456285;27;20405;-75
2022/05/04 16:28:12;;;;;;;5.47;3.50;;;;;;;21.03;46.32;97831.81;8500184;27;20292;-75
2022/05/04 16:32:35;;;;;;;6.97;3.60;;;;;;;20.50;44.64;97845.25;8483040;28;20417;-74
2022/05/04 16:36:39;;;;;;;4.90;3.70;;;;;;;20.75;45.75;97843.94;8482859;28;20292;-74
2022/05/04 16:41:04;;;;;;;4.33;3.77;;;;;;;20.76;45.39;97837.75;8482764;27;20509;-74
2022/05/04 16:45:08;;;;;;;4.60;3.40;;;;;;;20.55;46.36;97834.34;8482846;28;20237;-74
2022/05/04 16:49:11;;;;;;;4.37;3.47;;;;;;;20.58;47.16;97813.88;8482669;28;20229;-75
2022/05/04 16:53:14;;;;;;;3.63;2.60;;;;;;;20.35;43.25;97804.50;8482271;28;20240;-74
2022/05/04 16:57:18;;;;;;;3.33;2.30;;;;;;;19.99;42.65;97804.06;8482277;28;20233;-75
2022/05/04 17:01:21;;;;;;;4.17;2.37;;;;;;;20.24;44.43;97792.31;8482039;28;20235;-74
2022/05/04 17:05:25;;;;;;;6.70;2.60;;;;;;;19.94;45.19;97793.97;8483252;27;20340;-74
2022/05/04 17:09:28;;;;;;;5.03;2.83;;;;;;;19.82;46.35;97792.38;8481779;27;20240;-74
2022/05/04 17:13:33;;;;;;;4.23;2.83;;;;;;;19.73;47.59;97796.63;8481797;28;20235;-75
2022/05/04 17:17:36;;;;;;;4.10;3.40;;;;;;;19.79;48.01;97792.66;8481413;28;20236;-74
2022/05/04 17:21:39;;;;;;;4.73;3.67;;;;;;;19.68;49.08;97794.34;8481501;28;20241;-74
2022/05/04 17:25:42;;;;;;;4.90;3.50;;;;;;;19.59;49.31;97791.66;8481581;28;20246;-75
2022/05/04 17:29:46;;;;;;;6.30;3.50;;;;;;;19.27;48.31;97797.81;8481238;28;20509;-75
2022/05/04 17:38:10;;;;;;;4.57;2.83;;;;;;;19.40;48.68;97800.25;8481290;27;20267;-75
2022/05/04 17:42:13;;;;;;;10.20;7.43;;;;;;;19.49;49.97;97799.47;8481026;28;20524;-75
2022/05/04 17:46:18;;;;;;;6.33;5.47;;;;;;;19.47;50.97;97809.28;8481037;27;20541;-75
2022/05/04 17:50:21;;;;;;;4.63;3.83;;;;;;;19.52;50.13;97805.31;8480875;28;20229;-74
2022/05/04 17:54:24;;;;;;;4.50;3.40;;;;;;;19.47;49.60;97802.22;8446690;28;20226;-75
2022/05/04 17:58:28;;;;;;;4.83;3.30;;;;;;;19.51;50.11;97815.94;8446947;28;20229;-74
2022/05/04 18:06:53;;;;;;;3.80;3.27;;;;;;;19.38;50.16;97821.41;8480520;28;20305;-74
2022/05/04 18:10:56;;;;;;;3.63;3.00;;;;;;;19.33;50.40;97827.00;8480512;28;20599;-74
2022/05/04 18:14:59;;;;;;;3.87;3.03;;;;;;;19.24;49.89;97827.78;8480566;28;20593;-74
2022/05/04 18:19:04;;;;;;;6.70;3.77;;;;;;;19.21;50.03;97833.28;8480674;28;20544;-75
2022/05/04 18:23:07;;;;;;;3.90;3.50;;;;;;;19.17;50.08;97839.72;8480462;28;20225;-75
2022/05/04 18:27:10;;;;;;;5.17;3.60;;;;;;;19.09;50.88;97837.72;8480360;28;20236;-73
2022/05/04 18:31:13;;;;;;;5.63;3.83;;;;;;;19.05;50.88;97840.72;8480183;28;20532;-75
2022/05/04 18:35:19;;;;;;;4.20;3.43;;;;;;;18.90;51.09;97859.38;8479884;28;20231;-75
2022/05/04 18:39:22;;;;;;;6.77;3.87;;;;;;;18.82;51.79;97855.72;8479936;28;20222;-75
2022/05/04 18:43:25;;;;;;;6.93;4.00;;;;;;;18.77;52.48;97858.66;8480274;28;20229;-74
2022/05/04 18:47:28;;;;;;;5.97;3.60;;;;;;;18.70;52.42;97871.44;8483213;28;20244;-74
2022/05/04 18:51:32;;;;;;;6.80;3.80;;;;;;;18.60;52.55;97872.25;8486774;28;20271;-74
2022/05/04 18:55:36;;;;;;;4.90;3.20;;;;;;;18.53;52.87;97887.66;8486413;28;20241;-74
2022/05/04 18:59:39;;;;;;;5.13;3.50;;;;;;;18.35;53.62;97893.38;8486103;28;20226;-74
2022/05/04 19:03:42;;;;;;;4.53;3.20;;;;;;;18.33;53.49;97897.06;8486014;27;20237;-74
2022/05/04 19:07:47;;;;;;;5.60;3.83;;;;;;;18.26;54.10;97896.72;8486312;28;20240;-73
2022/05/04 19:11:50;;;;;;;3.90;3.40;;;;;;;18.23;54.15;97898.72;8485894;27;20562;-75
2022/05/04 19:15:52;;;;;;;8.37;4.00;;;;;;;18.23;54.68;97896.94;8485846;28;20594;-75
2022/05/04 19:19:55;;;;;;;5.30;4.13;;;;;;;18.11;54.87;97895.28;8485725;27;20562;-73
2022/05/04 19:24:00;;;;;;;4.57;3.77;;;;;;;18.11;54.44;97898.72;8485854;28;20433;-74
2022/05/04 19:28:03;;;;;;;4.67;3.77;;;;;;;18.00;55.65;97903.09;8485426;28;20233;-74
2022/05/04 19:32:07;;;;;;;4.97;4.03;;;;;;;18.01;55.54;97904.75;8502292;27;20237;-73
2022/05/04 19:36:10;;;;;;;5.10;4.20;;;;;;;17.96;55.47;97910.38;8501938;27;20456;-74
2022/05/04 19:40:14;;;;;;;4.87;4.07;;;;;;;17.90;55.47;97914.28;8502028;27;20241;-74
2022/05/04 19:44:20;;;;;;;11.20;4.53;;;;;;;17.90;55.55;97914.28;8501776;27;20229;-74
2022/05/04 19:48:26;;;;;;;6.03;4.47;;;;;;;17.81;55.93;97927.19;8484567;28;20527;-74
2022/05/04 19:52:29;;;;;;;4.60;4.20;;;;;;;17.76;55.93;97932.75;8484765;27;20233;-74
2022/05/04 19:56:35;;;;;;;5.83;4.47;;;;;;;17.73;56.00;97933.84;8484412;28;20237;-74